createdAt,value
2018-02-08T00:01:18.863Z,82.00
2018-02-08T00:06:21.694Z,82.60
2018-02-08T00:11:25.207Z,82.30
2018-02-08T00:16:28.739Z,82.00
2018-02-08T00:21:32.495Z,81.90
2018-02-08T00:26:35.269Z,82.50
2018-02-08T00:31:38.295Z,81.70
2018-02-08T00:36:41.301Z,81.80
2018-02-08T00:41:44.879Z,82.50
2018-02-08T00:46:47.832Z,82.30
2018-02-08T00:51:50.749Z,82.60
2018-02-08T00:56:54.447Z,82.00
2018-02-08T01:01:57.984Z,81.80
2018-02-08T01:07:00.701Z,82.40
2018-02-08T01:12:03.554Z,81.80
2018-02-08T01:17:07.898Z,82.20
2018-02-08T01:22:10.608Z,82.40
2018-02-08T01:27:13.345Z,82.40
2018-02-08T01:32:15.999Z,82.50
2018-02-08T01:37:18.779Z,82.50
2018-02-08T01:42:22.249Z,82.50
2018-02-08T01:47:24.952Z,82.30
2018-02-08T01:52:27.717Z,83.10
2018-02-08T01:57:30.392Z,82.60
2018-02-08T02:02:34.611Z,82.20
2018-02-08T02:07:37.614Z,82.00
2018-02-08T02:12:40.646Z,81.80
2018-02-08T02:17:43.299Z,82.00
2018-02-08T02:22:46.461Z,82.20
2018-02-08T02:27:49.191Z,82.20
2018-02-08T02:32:52.626Z,82.10
2018-02-08T02:37:55.372Z,82.00
2018-02-08T02:42:58.182Z,82.30
2018-02-08T02:48:00.881Z,81.60
2018-02-08T02:53:04.086Z,81.90
2018-02-08T02:58:07.537Z,81.90
2018-02-08T03:03:10.322Z,81.70
2018-02-08T03:08:13.446Z,82.10
2018-02-08T03:13:16.146Z,81.80
2018-02-08T03:18:18.920Z,82.10
2018-02-08T03:23:21.568Z,82.00
2018-02-08T03:28:25.356Z,82.00
2018-02-08T03:33:28.885Z,82.00
2018-02-08T03:38:31.614Z,82.40
2018-02-08T03:43:34.452Z,82.00
2018-02-08T03:48:37.997Z,81.90
2018-02-08T03:53:41.292Z,81.80
2018-02-08T03:58:44.067Z,81.70
2018-02-08T04:03:46.978Z,81.90
2018-02-08T04:08:49.723Z,81.80
2018-02-08T04:13:52.689Z,81.90
2018-02-08T04:18:55.401Z,81.80
2018-02-08T04:23:58.035Z,81.90
2018-02-08T04:29:00.691Z,82.10
2018-02-08T04:34:03.959Z,81.90
2018-02-08T04:39:18.611Z,81.80
2018-02-08T04:44:33.304Z,82.10
2018-02-08T04:49:36.830Z,82.20
2018-02-08T04:54:39.687Z,82.00
2018-02-08T04:59:42.433Z,82.00
2018-02-08T05:04:45.182Z,81.90
2018-02-08T05:09:47.941Z,82.20
2018-02-08T05:14:50.723Z,82.30
2018-02-08T05:19:53.457Z,82.20
2018-02-08T05:24:57.231Z,82.30
2018-02-08T05:30:00.865Z,82.50
2018-02-08T05:35:03.853Z,82.40
2018-02-08T05:40:06.580Z,82.30
2018-02-08T05:45:09.455Z,82.30
2018-02-08T05:50:12.942Z,82.40
2018-02-08T05:55:17.431Z,82.20
2018-02-08T06:05:37.693Z,82.30
2018-02-08T06:22:29.805Z,82.20
2018-02-08T06:27:40.830Z,82.80
2018-02-08T07:07:55.260Z,82.30
2018-02-08T07:13:32.958Z,82.20
2018-02-08T07:31:20.217Z,82.00
2018-02-08T09:48:59.362Z,83.10
2018-02-08T10:15:12.689Z,82.90
2018-02-08T10:51:22.979Z,82.60
2018-02-08T10:56:46.259Z,82.80
2018-02-08T11:08:22.111Z,82.50
2018-02-08T11:19:02.523Z,82.20
2018-02-08T12:14:52.623Z,81.30
2018-02-08T12:20:23.052Z,81.20
2018-02-08T12:25:55.052Z,81.10
2018-02-08T12:30:59.693Z,81.00
2018-02-08T12:36:06.948Z,80.80
2018-02-08T12:41:12.839Z,80.50
2018-02-08T12:46:16.442Z,80.60
2018-02-08T12:51:20.164Z,79.80
2018-02-08T12:56:27.866Z,80.00
2018-02-08T13:01:32.060Z,80.00
2018-02-08T13:06:35.078Z,79.80
2018-02-08T13:11:38.098Z,79.80
2018-02-08T13:16:45.214Z,79.80
2018-02-08T13:21:50.570Z,79.90
2018-02-08T13:26:54.836Z,79.40
2018-02-08T13:32:00.275Z,79.50
2018-02-08T13:37:03.669Z,79.70
2018-02-08T13:42:27.462Z,80.10
2018-02-08T13:53:19.468Z,79.80
2018-02-08T14:05:06.255Z,79.50
2018-02-08T14:43:51.497Z,79.50
2018-02-08T15:56:58.742Z,79.90
2018-02-08T16:02:05.032Z,79.70
2018-02-08T16:07:08.309Z,79.40
2018-02-08T16:12:11.859Z,79.50
2018-02-08T16:17:15.517Z,79.40
2018-02-08T16:22:20.146Z,79.90
2018-02-08T16:27:23.141Z,79.80
2018-02-08T16:32:26.957Z,79.80
2018-02-08T16:37:30.394Z,80.00
2018-02-08T16:42:33.459Z,80.00
2018-02-08T16:47:40.253Z,80.20
2018-02-08T16:52:43.521Z,80.30
2018-02-08T16:57:47.309Z,80.30
2018-02-08T17:02:52.685Z,80.20
2018-02-08T17:07:55.537Z,80.10
2018-02-08T17:13:13.447Z,80.20
2018-02-08T17:18:16.654Z,80.20
2018-02-08T17:23:19.863Z,80.10
2018-02-08T17:33:20.683Z,80.20
2018-02-08T17:38:30.515Z,80.10
2018-02-08T17:43:36.838Z,80.30
2018-02-08T17:48:39.982Z,80.20
2018-02-08T17:53:44.122Z,80.20
2018-02-08T17:58:47.182Z,80.30
2018-02-08T18:03:52.675Z,80.30
2018-02-08T18:08:55.753Z,80.40
2018-02-08T18:13:59.703Z,80.20
2018-02-08T18:19:02.779Z,80.30
2018-02-08T18:24:06.870Z,80.30
2018-02-08T18:29:09.685Z,80.40
2018-02-08T18:34:17.248Z,80.70
2018-02-08T18:39:22.589Z,80.40
2018-02-08T18:44:26.641Z,80.30
2018-02-08T18:49:34.189Z,80.50
2018-02-08T18:54:54.658Z,80.50
2018-02-08T19:00:01.013Z,80.50
2018-02-08T19:05:07.057Z,80.40
2018-02-08T19:10:13.329Z,80.40
2018-02-08T19:15:17.445Z,80.30
2018-02-08T19:20:22.177Z,80.40
2018-02-08T19:25:27.069Z,80.40
2018-02-08T19:30:36.955Z,80.40
2018-02-08T19:35:44.034Z,80.50
2018-02-08T19:40:48.055Z,80.60
2018-02-08T19:45:56.075Z,80.40
2018-02-08T19:56:28.313Z,80.50
2018-02-08T20:01:40.003Z,80.60
2018-02-08T20:06:49.084Z,80.60
2018-02-08T20:11:54.047Z,80.80
2018-02-08T20:17:05.588Z,80.80
2018-02-08T20:22:16.749Z,81.40
2018-02-08T20:32:43.037Z,80.80
2018-02-08T20:37:47.318Z,81.40
2018-02-08T20:48:20.572Z,80.60
2018-02-08T20:53:26.371Z,80.80
2018-02-08T20:58:29.965Z,80.80
2018-02-08T21:03:34.441Z,80.80
2018-02-08T21:08:40.403Z,80.70
2018-02-08T21:13:45.305Z,80.60
2018-02-08T21:18:48.304Z,80.40
2018-02-08T21:23:52.832Z,80.70
2018-02-08T21:28:56.977Z,80.50
2018-02-08T21:34:09.963Z,80.60
2018-02-08T21:39:14.689Z,80.40
2018-02-08T21:44:28.831Z,80.30
2018-02-08T21:49:34.898Z,80.50
2018-02-08T21:54:43.534Z,80.50
2018-02-08T21:59:54.242Z,80.30
2018-02-08T22:05:03.637Z,80.20
2018-02-08T22:10:11.150Z,80.40
2018-02-08T22:21:07.642Z,80.40
2018-02-08T22:26:17.625Z,80.40
2018-02-08T22:31:31.203Z,80.30
2018-02-08T22:36:43.211Z,80.20
2018-02-08T22:41:57.714Z,80.00
2018-02-08T22:47:07.164Z,80.20
2018-02-08T22:52:17.782Z,80.50
2018-02-08T22:57:25.229Z,80.30
2018-02-08T23:02:30.879Z,80.30
2018-02-08T23:07:49.730Z,80.30
2018-02-08T23:12:54.083Z,80.30
2018-02-08T23:23:21.328Z,80.50
2018-02-08T23:28:33.905Z,80.40
2018-02-08T23:33:38.791Z,80.50
2018-02-08T23:38:52.085Z,80.50
2018-02-08T23:44:16.522Z,80.50
2018-02-08T23:49:25.832Z,80.50
2018-02-08T23:54:42.710Z,80.70
2018-02-08T23:59:50.355Z,80.40
